createdAt,value
2018-03-20T00:01:32.866Z,0.00
2018-03-20T00:02:33.281Z,0.00
2018-03-20T00:04:27.866Z,0.00
2018-03-20T00:05:28.286Z,0.00
2018-03-20T00:07:25.763Z,0.00
2018-03-20T00:08:26.187Z,0.00
2018-03-20T00:10:22.635Z,0.00
2018-03-20T00:11:23.043Z,0.00
2018-03-20T00:13:17.621Z,0.00
2018-03-20T00:14:18.026Z,0.00
2018-03-20T00:16:12.604Z,0.00
2018-03-20T00:17:13.018Z,0.00
2018-03-20T00:19:07.596Z,0.00
2018-03-20T00:20:08.021Z,0.00
2018-03-20T00:22:02.607Z,0.00
2018-03-20T00:23:03.015Z,0.00
2018-03-20T00:24:57.598Z,0.00
2018-03-20T00:25:58.020Z,0.00
2018-03-20T00:27:52.612Z,0.00
2018-03-20T00:28:53.018Z,0.00
2018-03-20T00:30:47.605Z,0.00
2018-03-20T00:31:48.015Z,0.00
2018-03-20T00:33:42.601Z,0.00
2018-03-20T00:34:43.018Z,0.00
2018-03-20T00:36:42.054Z,0.00
2018-03-20T00:39:16.108Z,0.00
2018-03-20T00:40:16.523Z,0.00
2018-03-20T00:42:11.109Z,0.00
2018-03-20T00:43:11.522Z,0.00
2018-03-20T00:45:07.084Z,0.00
2018-03-20T00:46:07.493Z,0.00
2018-03-20T00:48:02.097Z,0.00
2018-03-20T00:49:02.485Z,0.00
2018-03-20T00:51:10.269Z,0.00
2018-03-20T00:53:57.807Z,0.00
2018-03-20T00:56:31.330Z,0.00
2018-03-20T00:57:31.769Z,0.00
2018-03-20T00:59:42.895Z,0.00
2018-03-20T01:00:43.310Z,0.00
2018-03-20T01:02:37.900Z,0.00
2018-03-20T01:03:38.309Z,0.00
2018-03-20T01:05:32.889Z,0.00
2018-03-20T01:06:33.316Z,0.00
2018-03-20T01:08:27.895Z,0.00
2018-03-20T01:09:28.311Z,0.00
2018-03-20T01:11:22.884Z,0.00
2018-03-20T01:12:23.307Z,0.00
2018-03-20T01:14:17.894Z,0.00
2018-03-20T01:15:18.302Z,0.00
2018-03-20T01:17:12.936Z,0.00
2018-03-20T01:18:13.307Z,0.00
2018-03-20T01:19:13.725Z,0.00
2018-03-20T01:20:14.138Z,0.00
2018-03-20T01:21:14.554Z,0.00
2018-03-20T01:22:14.974Z,0.00
2018-03-20T01:23:15.393Z,0.00
2018-03-20T01:24:15.809Z,0.00
2018-03-20T01:25:16.281Z,0.00
2018-03-20T01:26:16.642Z,0.00
2018-03-20T01:27:17.062Z,0.00
2018-03-20T01:28:17.482Z,0.00
2018-03-20T01:29:17.897Z,0.00
2018-03-20T01:30:18.312Z,0.00
2018-03-20T01:31:18.730Z,0.00
2018-03-20T01:32:19.146Z,0.00
2018-03-20T01:33:19.566Z,0.00
2018-03-20T01:34:19.984Z,0.00
2018-03-20T01:35:20.401Z,0.00
2018-03-20T01:37:53.938Z,0.00
2018-03-20T01:38:54.347Z,0.00
2018-03-20T01:40:51.060Z,0.00
2018-03-20T01:41:51.461Z,0.00
2018-03-20T01:43:46.054Z,0.00
2018-03-20T01:44:46.455Z,0.00
2018-03-20T01:46:42.226Z,0.00
2018-03-20T01:47:42.673Z,0.00
2018-03-20T01:49:40.400Z,0.00
2018-03-20T01:50:40.810Z,0.00
2018-03-20T01:52:36.371Z,0.00
2018-03-20T01:53:36.787Z,0.00
2018-03-20T01:55:31.370Z,0.00
2018-03-20T01:56:31.786Z,0.00
2018-03-20T01:58:26.362Z,0.00
2018-03-20T01:59:26.768Z,0.00
2018-03-20T02:01:22.338Z,0.00
2018-03-20T02:02:22.751Z,0.00
2018-03-20T02:07:27.386Z,0.00
2018-03-20T02:08:27.794Z,0.00
2018-03-20T02:10:22.381Z,0.00
2018-03-20T02:11:22.795Z,0.00
2018-03-20T02:13:18.354Z,0.00
2018-03-20T02:14:18.805Z,0.00
2018-03-20T02:16:13.356Z,0.00
2018-03-20T02:17:13.768Z,0.00
2018-03-20T02:19:09.686Z,0.00
2018-03-20T02:20:10.103Z,0.00
2018-03-20T02:22:05.656Z,0.00
2018-03-20T02:23:06.070Z,0.00
2018-03-20T02:25:01.646Z,0.00
2018-03-20T02:26:02.055Z,0.00
2018-03-20T02:27:56.642Z,0.00
2018-03-20T02:28:57.049Z,0.00
2018-03-20T02:30:51.674Z,0.00
2018-03-20T02:31:52.046Z,0.00
2018-03-20T02:33:46.635Z,0.00
2018-03-20T02:34:47.053Z,0.00
2018-03-20T02:36:41.618Z,0.00
2018-03-20T02:37:42.038Z,0.00
2018-03-20T02:39:40.578Z,0.00
2018-03-20T02:40:40.991Z,0.00
2018-03-20T02:41:41.420Z,0.00
2018-03-20T02:42:41.837Z,0.00
2018-03-20T02:43:42.253Z,0.00
2018-03-20T02:44:42.669Z,0.00
2018-03-20T02:45:43.085Z,0.00
2018-03-20T02:46:43.498Z,0.00
2018-03-20T02:47:43.933Z,0.00
2018-03-20T02:48:44.335Z,0.00
2018-03-20T02:49:44.762Z,0.00
2018-03-20T02:50:45.172Z,0.00
2018-03-20T02:51:45.587Z,0.00
2018-03-20T02:52:46.010Z,0.00
2018-03-20T02:53:46.421Z,0.00
2018-03-20T02:54:46.842Z,0.00
2018-03-20T02:55:47.253Z,0.00
2018-03-20T02:56:47.675Z,0.00
2018-03-20T02:57:48.093Z,0.00
2018-03-20T02:58:48.508Z,0.00
2018-03-20T02:59:48.926Z,0.00
2018-03-20T03:00:49.351Z,0.00
2018-03-20T03:01:49.758Z,0.00
2018-03-20T03:02:50.185Z,0.00
2018-03-20T03:03:50.595Z,0.00
2018-03-20T03:04:51.021Z,0.00
2018-03-20T03:07:25.547Z,0.00
2018-03-20T03:10:23.827Z,0.00
2018-03-20T03:13:10.542Z,0.00
2018-03-20T03:15:44.070Z,0.00
2018-03-20T03:16:44.487Z,0.00
2018-03-20T03:18:39.427Z,0.00
2018-03-20T03:19:39.838Z,0.00
2018-03-20T03:21:34.414Z,0.00
2018-03-20T03:22:34.837Z,0.00
2018-03-20T03:24:30.390Z,0.00
2018-03-20T03:25:30.808Z,0.00
2018-03-20T03:27:25.400Z,0.00
2018-03-20T03:28:25.804Z,0.00
2018-03-20T03:30:20.386Z,0.00
2018-03-20T03:31:20.793Z,0.00
2018-03-20T03:33:15.769Z,0.00
2018-03-20T03:34:15.899Z,0.00
2018-03-20T03:36:40.128Z,0.00
2018-03-20T03:37:40.531Z,0.00
2018-03-20T03:39:39.122Z,0.00
2018-03-20T03:44:00.552Z,0.00
2018-03-20T03:46:39.710Z,0.00
2018-03-20T03:47:40.115Z,0.00
2018-03-20T03:49:35.213Z,0.00
2018-03-20T03:50:35.629Z,0.00
2018-03-20T03:52:30.211Z,0.00
2018-03-20T03:55:18.260Z,0.00
2018-03-20T03:59:24.859Z,0.00
2018-03-20T04:03:36.439Z,0.00
2018-03-20T04:06:09.995Z,0.00
2018-03-20T04:08:43.516Z,0.00
2018-03-20T04:09:44.109Z,0.00
2018-03-20T04:10:44.346Z,0.00
2018-03-20T04:14:31.463Z,0.00
2018-03-20T04:15:31.876Z,0.00
2018-03-20T04:17:26.460Z,0.00
2018-03-20T04:18:26.863Z,0.00
2018-03-20T04:20:22.430Z,0.00
2018-03-20T04:21:22.851Z,0.00
2018-03-20T04:22:23.259Z,0.00
2018-03-20T04:23:23.685Z,0.00
2018-03-20T04:24:24.094Z,0.00
2018-03-20T04:25:24.508Z,0.00
2018-03-20T04:26:24.929Z,0.00
2018-03-20T04:27:25.345Z,0.00
2018-03-20T04:28:25.761Z,0.00
2018-03-20T04:29:26.180Z,0.00
2018-03-20T04:30:26.594Z,0.00
2018-03-20T04:31:27.013Z,0.00
2018-03-20T04:32:27.433Z,0.00
2018-03-20T04:33:27.849Z,0.00
2018-03-20T04:34:28.262Z,0.00
2018-03-20T04:35:28.678Z,0.00
2018-03-20T04:36:29.101Z,0.00
2018-03-20T04:37:29.514Z,4.00
2018-03-20T04:38:29.927Z,4.00
2018-03-20T04:39:30.350Z,4.00
2018-03-20T04:40:30.774Z,0.00
2018-03-20T04:41:31.179Z,0.00
2018-03-20T04:42:31.593Z,4.00
2018-03-20T04:43:32.019Z,0.00
2018-03-20T04:44:32.437Z,4.00
2018-03-20T04:45:32.845Z,8.00
2018-03-20T04:46:33.261Z,4.00
2018-03-20T04:47:33.688Z,8.00
2018-03-20T04:48:34.095Z,8.00
2018-03-20T04:49:34.510Z,8.00
2018-03-20T04:50:34.926Z,12.00
2018-03-20T04:51:35.344Z,12.00
2018-03-20T04:52:35.760Z,16.00
2018-03-20T04:53:36.177Z,16.00
2018-03-20T04:54:36.594Z,16.00
2018-03-20T04:55:37.011Z,20.00
2018-03-20T04:56:37.427Z,24.00
2018-03-20T04:57:37.844Z,28.00
2018-03-20T04:58:38.269Z,32.00
2018-03-20T04:59:38.695Z,40.00
2018-03-20T05:00:39.095Z,44.00
2018-03-20T05:01:39.526Z,52.00
2018-03-20T05:02:39.938Z,56.00
2018-03-20T05:04:34.572Z,68.00
2018-03-20T05:05:34.925Z,76.00
2018-03-20T05:07:29.508Z,92.00
2018-03-20T05:08:29.925Z,100.00
2018-03-20T05:10:24.486Z,116.00
2018-03-20T05:11:24.904Z,124.00
2018-03-20T05:12:25.325Z,136.00
2018-03-20T05:13:25.735Z,148.00
2018-03-20T05:14:26.167Z,164.00
2018-03-20T05:15:26.574Z,184.00
2018-03-20T05:16:26.992Z,200.00
2018-03-20T05:17:27.405Z,216.00
2018-03-20T05:18:27.822Z,224.00
2018-03-20T05:19:28.239Z,236.00
2018-03-20T05:20:28.652Z,252.00
2018-03-20T05:21:29.079Z,252.00
2018-03-20T05:22:29.488Z,252.00
2018-03-20T05:23:29.904Z,236.00
2018-03-20T05:24:30.320Z,216.00
2018-03-20T05:25:30.737Z,204.00
2018-03-20T05:26:31.161Z,200.00
2018-03-20T05:27:31.572Z,200.00
2018-03-20T05:28:31.987Z,192.00
2018-03-20T05:29:32.412Z,180.00
2018-03-20T05:30:32.832Z,172.00
2018-03-20T05:31:33.243Z,176.00
2018-03-20T05:32:33.659Z,176.00
2018-03-20T05:33:34.075Z,180.00
2018-03-20T05:34:34.497Z,188.00
2018-03-20T05:35:34.908Z,188.00
2018-03-20T05:36:35.328Z,200.00
2018-03-20T05:37:35.740Z,208.00
2018-03-20T05:38:36.160Z,220.00
2018-03-20T05:39:36.579Z,232.00
2018-03-20T05:40:36.992Z,244.00
2018-03-20T05:41:37.410Z,268.00
2018-03-20T05:42:37.828Z,296.00
2018-03-20T05:43:38.245Z,308.00
2018-03-20T05:44:38.661Z,308.00
2018-03-20T05:45:39.080Z,304.00
2018-03-20T05:46:39.493Z,296.00
2018-03-20T05:47:39.907Z,304.00
2018-03-20T05:48:40.325Z,332.00
2018-03-20T05:49:40.746Z,364.00
2018-03-20T05:50:41.160Z,412.00
2018-03-20T05:51:41.577Z,448.00
2018-03-20T05:52:41.992Z,472.00
2018-03-20T05:53:42.405Z,496.00
2018-03-20T05:54:42.826Z,528.00
2018-03-20T05:55:43.239Z,568.00
2018-03-20T05:56:43.659Z,616.00
2018-03-20T05:57:44.070Z,684.00
2018-03-20T05:58:44.491Z,816.00
2018-03-20T05:59:44.916Z,996.00
2018-03-20T06:00:45.325Z,1216.00
2018-03-20T06:01:45.738Z,1452.00
2018-03-20T06:02:46.156Z,1660.00
2018-03-20T06:03:46.572Z,1852.00
2018-03-20T06:04:46.992Z,2032.00
2018-03-20T06:05:47.405Z,2260.00
2018-03-20T06:06:47.820Z,2484.00
2018-03-20T06:07:48.238Z,2532.00
2018-03-20T06:08:48.654Z,2368.00
2018-03-20T06:09:49.071Z,2124.00
2018-03-20T06:10:49.487Z,1968.00
2018-03-20T06:11:49.905Z,1920.00
2018-03-20T06:12:50.320Z,1932.00
2018-03-20T06:13:50.740Z,1956.00
2018-03-20T06:14:51.154Z,1976.00
2018-03-20T06:15:51.606Z,2020.00
2018-03-20T06:16:51.998Z,1992.00
2018-03-20T06:17:52.412Z,1964.00
2018-03-20T06:18:52.909Z,1900.00
2018-03-20T06:19:53.263Z,1800.00
2018-03-20T06:20:53.680Z,1680.00
2018-03-20T06:21:54.110Z,1632.00
2018-03-20T06:22:54.495Z,1592.00
2018-03-20T06:23:54.912Z,1540.00
2018-03-20T06:24:55.337Z,1480.00
2018-03-20T06:25:55.759Z,1432.00
2018-03-20T06:26:56.163Z,1432.00
2018-03-20T06:27:56.877Z,1472.00
2018-03-20T06:28:57.010Z,1524.00
2018-03-20T06:29:57.425Z,1572.00
2018-03-20T06:30:57.850Z,1640.00
2018-03-20T06:31:58.255Z,1724.00
2018-03-20T06:32:58.674Z,1804.00
2018-03-20T06:33:59.092Z,1912.00
2018-03-20T06:34:59.509Z,2028.00
2018-03-20T06:35:59.926Z,2140.00
2018-03-20T06:37:00.354Z,2252.00
2018-03-20T06:38:00.864Z,2360.00
2018-03-20T06:39:01.182Z,2472.00
2018-03-20T06:40:01.609Z,2544.00
2018-03-20T06:41:02.014Z,2608.00
2018-03-20T06:42:02.435Z,2680.00
2018-03-20T06:43:02.851Z,2756.00
2018-03-20T06:44:03.305Z,2820.00
2018-03-20T06:45:03.707Z,2888.00
2018-03-20T06:46:04.133Z,2984.00
2018-03-20T06:47:04.550Z,3044.00
2018-03-20T06:48:05.062Z,3044.00
2018-03-20T06:49:05.370Z,2972.00
2018-03-20T06:50:05.806Z,2816.00
2018-03-20T06:51:06.199Z,2628.00
2018-03-20T06:52:06.635Z,2452.00
2018-03-20T06:53:07.038Z,2316.00
2018-03-20T06:54:07.466Z,2248.00
2018-03-20T06:55:07.875Z,2248.00
2018-03-20T06:56:08.289Z,2300.00
2018-03-20T06:57:08.708Z,2348.00
2018-03-20T06:58:09.135Z,2356.00
2018-03-20T06:59:09.562Z,2360.00
2018-03-20T07:00:09.972Z,2376.00
2018-03-20T07:01:10.389Z,2424.00
2018-03-20T07:02:10.801Z,2492.00
2018-03-20T07:03:11.218Z,2560.00
2018-03-20T07:04:11.648Z,2644.00
2018-03-20T07:05:12.062Z,2736.00
2018-03-20T07:06:12.487Z,2844.00
2018-03-20T07:07:12.896Z,2952.00
2018-03-20T07:08:13.312Z,3040.00
2018-03-20T07:10:46.872Z,3344.00
2018-03-20T07:11:47.335Z,3512.00
2018-03-20T07:12:47.709Z,3708.00
2018-03-20T07:13:48.122Z,3856.00
2018-03-20T07:14:48.539Z,4016.00
2018-03-20T07:15:48.963Z,4128.00
2018-03-20T07:16:49.441Z,4184.00
2018-03-20T07:17:49.792Z,4196.00
2018-03-20T07:18:50.206Z,4200.00
2018-03-20T07:19:50.636Z,4220.00
2018-03-20T07:20:51.050Z,4268.00
2018-03-20T07:21:51.471Z,4344.00
2018-03-20T07:22:51.949Z,4468.00
2018-03-20T07:23:52.306Z,4612.00
2018-03-20T07:24:52.727Z,4784.00
2018-03-20T07:25:53.141Z,4944.00
2018-03-20T07:26:53.561Z,5040.00
2018-03-20T07:27:53.985Z,5132.00
2018-03-20T07:28:54.424Z,5280.00
2018-03-20T07:29:54.823Z,5424.00
2018-03-20T07:30:55.243Z,5536.00
2018-03-20T07:31:55.654Z,5812.00
2018-03-20T07:32:56.082Z,6040.00
2018-03-20T07:33:56.490Z,6364.00
2018-03-20T07:34:56.914Z,6800.00
2018-03-20T07:35:57.333Z,7344.00
2018-03-20T07:36:57.758Z,7720.00
2018-03-20T07:37:58.168Z,7948.00
2018-03-20T07:38:58.593Z,7888.00
2018-03-20T07:39:59.019Z,7580.00
2018-03-20T07:40:59.578Z,7304.00
2018-03-20T07:41:59.853Z,6968.00
2018-03-20T07:43:00.271Z,6656.00
2018-03-20T07:44:00.689Z,6360.00
2018-03-20T07:45:01.114Z,6184.00
2018-03-20T07:46:01.538Z,6068.00
2018-03-20T07:47:01.955Z,6020.00
2018-03-20T07:48:02.381Z,5992.00
2018-03-20T07:49:02.802Z,6032.00
2018-03-20T07:50:03.220Z,5900.00
2018-03-20T07:51:03.638Z,6156.00
2018-03-20T07:52:04.049Z,6372.00
2018-03-20T07:53:04.477Z,6576.00
2018-03-20T07:54:04.892Z,6692.00
2018-03-20T07:55:05.350Z,6648.00
2018-03-20T07:56:05.748Z,6676.00
2018-03-20T07:57:06.218Z,6696.00
2018-03-20T07:58:06.580Z,6744.00
2018-03-20T07:59:07.000Z,6780.00
2018-03-20T08:00:07.421Z,6928.00
2018-03-20T08:01:07.836Z,7072.00
2018-03-20T08:02:08.284Z,7232.00
2018-03-20T08:03:08.681Z,7436.00
2018-03-20T08:04:09.110Z,7404.00
2018-03-20T08:05:09.517Z,7308.00
2018-03-20T08:06:09.944Z,7272.00
2018-03-20T08:07:10.358Z,7352.00
2018-03-20T08:08:10.782Z,7580.00
2018-03-20T08:09:11.202Z,7240.00
2018-03-20T08:10:11.623Z,7152.00
2018-03-20T08:11:12.045Z,6992.00
2018-03-20T08:12:12.472Z,6852.00
2018-03-20T08:13:12.919Z,6784.00
2018-03-20T08:14:13.323Z,6804.00
2018-03-20T08:15:13.728Z,6748.00
2018-03-20T08:16:14.156Z,6548.00
2018-03-20T08:17:14.566Z,6480.00
2018-03-20T08:18:14.991Z,6320.00
2018-03-20T08:19:15.411Z,6092.00
2018-03-20T08:20:15.850Z,5964.00
2018-03-20T08:21:16.253Z,5952.00
2018-03-20T08:22:16.679Z,5960.00
2018-03-20T08:23:17.096Z,5844.00
2018-03-20T08:24:17.532Z,5728.00
2018-03-20T08:25:17.937Z,5596.00
2018-03-20T08:26:18.363Z,5616.00
2018-03-20T08:27:18.781Z,5660.00
2018-03-20T08:28:19.196Z,5732.00
2018-03-20T08:29:19.671Z,5676.00
2018-03-20T08:30:20.042Z,5592.00
2018-03-20T08:31:20.454Z,5672.00
2018-03-20T08:32:20.879Z,5576.00
2018-03-20T08:33:21.305Z,5440.00
2018-03-20T08:34:21.721Z,5272.00
2018-03-20T08:35:22.140Z,5320.00
2018-03-20T08:36:22.568Z,5220.00
2018-03-20T08:37:22.976Z,4980.00
2018-03-20T08:38:23.526Z,4804.00
2018-03-20T08:39:23.824Z,4688.00
2018-03-20T08:40:24.249Z,4616.00
2018-03-20T08:41:24.664Z,4620.00
2018-03-20T08:42:25.082Z,4700.00
2018-03-20T08:43:25.500Z,4680.00
2018-03-20T08:44:25.984Z,4804.00
2018-03-20T08:45:26.338Z,4960.00
2018-03-20T08:46:26.770Z,5020.00
2018-03-20T08:47:27.185Z,4912.00
2018-03-20T08:48:27.605Z,4732.00
2018-03-20T08:49:28.021Z,4592.00
2018-03-20T08:50:28.440Z,4516.00
2018-03-20T08:51:28.866Z,4512.00
2018-03-20T08:52:29.289Z,4360.00
2018-03-20T08:53:29.711Z,4212.00
2018-03-20T08:54:30.123Z,4260.00
2018-03-20T08:55:30.548Z,4368.00
2018-03-20T08:56:30.962Z,4428.00
2018-03-20T08:57:31.384Z,4260.00
2018-03-20T08:58:31.805Z,4172.00
2018-03-20T08:59:32.227Z,4068.00
2018-03-20T09:00:32.693Z,3908.00
2018-03-20T09:01:33.062Z,3836.00
2018-03-20T09:02:33.485Z,3844.00
2018-03-20T09:03:33.904Z,3848.00
2018-03-20T09:04:34.336Z,3920.00
2018-03-20T09:05:34.748Z,4128.00
2018-03-20T09:06:35.168Z,4492.00
2018-03-20T09:07:35.586Z,4836.00
2018-03-20T09:08:36.021Z,5076.00
2018-03-20T09:09:36.440Z,5292.00
2018-03-20T09:10:36.933Z,5532.00
2018-03-20T09:11:37.271Z,5784.00
2018-03-20T09:12:37.687Z,5960.00
2018-03-20T09:13:38.116Z,6092.00
2018-03-20T09:14:38.543Z,6204.00
2018-03-20T09:15:38.953Z,6440.00
2018-03-20T09:16:39.383Z,6732.00
2018-03-20T09:17:39.792Z,6892.00
2018-03-20T09:18:40.216Z,6844.00
2018-03-20T09:19:40.636Z,6604.00
2018-03-20T09:20:41.048Z,6320.00
2018-03-20T09:21:41.471Z,6156.00
2018-03-20T09:22:41.893Z,6000.00
2018-03-20T09:23:42.326Z,5988.00
2018-03-20T09:24:42.766Z,5740.00
2018-03-20T09:25:43.203Z,5380.00
2018-03-20T09:26:43.595Z,5340.00
2018-03-20T09:27:44.036Z,5652.00
2018-03-20T09:28:44.459Z,5556.00
2018-03-20T09:29:44.912Z,5240.00
2018-03-20T09:30:45.285Z,5048.00
2018-03-20T09:31:45.723Z,4916.00
2018-03-20T09:32:46.135Z,5148.00
2018-03-20T09:33:46.540Z,5584.00
2018-03-20T09:34:46.973Z,5628.00
2018-03-20T09:35:47.390Z,5660.00
2018-03-20T09:36:47.792Z,6284.00
2018-03-20T09:37:48.243Z,6536.00
2018-03-20T09:38:48.629Z,7136.00
2018-03-20T09:39:49.044Z,7568.00
2018-03-20T09:40:49.490Z,7148.00
2018-03-20T09:41:49.882Z,6624.00
2018-03-20T09:42:50.315Z,7684.00
2018-03-20T09:43:50.789Z,8732.00
2018-03-20T09:44:51.177Z,8892.00
2018-03-20T09:45:51.630Z,8644.00
2018-03-20T09:46:52.024Z,7664.00
2018-03-20T09:47:52.448Z,7660.00
2018-03-20T09:48:52.856Z,8400.00
2018-03-20T09:49:53.244Z,9268.00
2018-03-20T09:50:53.686Z,8824.00
2018-03-20T09:51:54.094Z,7704.00
2018-03-20T09:52:54.517Z,7992.00
2018-03-20T09:53:54.957Z,10124.00
2018-03-20T09:54:55.367Z,11424.00
2018-03-20T09:55:55.777Z,11672.00
2018-03-20T09:56:56.215Z,11740.00
2018-03-20T09:57:56.632Z,10900.00
2018-03-20T09:58:57.055Z,9428.00
2018-03-20T09:59:57.472Z,8160.00
2018-03-20T10:00:57.898Z,7636.00
2018-03-20T10:01:58.302Z,8552.00
2018-03-20T10:02:58.729Z,9132.00
2018-03-20T10:03:59.184Z,9104.00
2018-03-20T10:04:59.574Z,8664.00
2018-03-20T10:06:00.006Z,9508.00
2018-03-20T10:07:00.475Z,11060.00
2018-03-20T10:08:00.844Z,11200.00
2018-03-20T10:09:01.264Z,10972.00
2018-03-20T10:10:01.681Z,9620.00
2018-03-20T10:11:02.094Z,9360.00
2018-03-20T10:12:02.541Z,9284.00
2018-03-20T10:13:02.950Z,9736.00
2018-03-20T10:14:03.414Z,10284.00
2018-03-20T10:15:03.780Z,10788.00
2018-03-20T10:16:04.206Z,11008.00
2018-03-20T10:17:04.656Z,10316.00
2018-03-20T10:18:05.066Z,9348.00
2018-03-20T10:19:05.473Z,9000.00
2018-03-20T10:20:05.959Z,9176.00
2018-03-20T10:21:06.397Z,8640.00
2018-03-20T10:22:06.740Z,7964.00
2018-03-20T10:23:07.155Z,7828.00
2018-03-20T10:24:07.589Z,7712.00
2018-03-20T10:25:08.022Z,7696.00
2018-03-20T10:26:08.424Z,7356.00
2018-03-20T10:27:08.862Z,6956.00
2018-03-20T10:28:09.297Z,5940.00
2018-03-20T10:29:09.722Z,5624.00
2018-03-20T10:30:10.147Z,5412.00
2018-03-20T10:31:10.562Z,5076.00
2018-03-20T10:32:11.007Z,4480.00
2018-03-20T10:33:11.392Z,4184.00
2018-03-20T10:34:11.802Z,4080.00
2018-03-20T10:35:12.227Z,3984.00
2018-03-20T10:36:12.664Z,3924.00
2018-03-20T10:37:13.069Z,3924.00
2018-03-20T10:38:13.499Z,3824.00
2018-03-20T10:39:13.910Z,3820.00
2018-03-20T10:40:14.369Z,3992.00
2018-03-20T10:41:14.751Z,4304.00
2018-03-20T10:42:15.195Z,4492.00
2018-03-20T10:43:15.593Z,4184.00
2018-03-20T10:44:16.069Z,4216.00
2018-03-20T10:45:16.445Z,4320.00
2018-03-20T10:46:16.865Z,4572.00
2018-03-20T10:47:17.344Z,4912.00
2018-03-20T10:48:17.726Z,4648.00
2018-03-20T10:49:18.131Z,4352.00
2018-03-20T10:50:18.548Z,4500.00
2018-03-20T10:51:18.956Z,4368.00
2018-03-20T10:52:19.374Z,4620.00
2018-03-20T10:53:19.798Z,4692.00
2018-03-20T10:54:20.224Z,4460.00
2018-03-20T10:55:20.637Z,4216.00
2018-03-20T10:56:21.068Z,4080.00
2018-03-20T10:57:21.479Z,3888.00
2018-03-20T10:58:21.902Z,4012.00
2018-03-20T10:59:22.341Z,3680.00
2018-03-20T11:00:22.743Z,3760.00
2018-03-20T11:01:23.168Z,3916.00
2018-03-20T11:02:23.585Z,3960.00
2018-03-20T11:03:24.007Z,4276.00
2018-03-20T11:04:24.427Z,4812.00
2018-03-20T11:05:24.843Z,5184.00
2018-03-20T11:06:25.262Z,5256.00
2018-03-20T11:07:25.691Z,5128.00
2018-03-20T11:08:26.130Z,5568.00
2018-03-20T11:09:26.525Z,6156.00
2018-03-20T11:10:26.976Z,6468.00
2018-03-20T11:11:27.393Z,6188.00
2018-03-20T11:12:27.791Z,5704.00
2018-03-20T11:13:28.204Z,5536.00
2018-03-20T11:14:28.630Z,5556.00
2018-03-20T11:15:29.043Z,5028.00
2018-03-20T11:16:29.469Z,4360.00
2018-03-20T11:17:29.891Z,4548.00
2018-03-20T11:18:30.306Z,4860.00
2018-03-20T11:19:30.732Z,5080.00
2018-03-20T11:20:31.161Z,4848.00
2018-03-20T11:21:31.568Z,4744.00
2018-03-20T11:22:31.995Z,4884.00
2018-03-20T11:23:32.411Z,5144.00
2018-03-20T11:24:32.832Z,5000.00
2018-03-20T11:25:33.251Z,4592.00
2018-03-20T11:26:33.688Z,4596.00
2018-03-20T11:27:34.094Z,4336.00
2018-03-20T11:28:34.521Z,3980.00
2018-03-20T11:29:34.943Z,3916.00
2018-03-20T11:30:35.359Z,3692.00
2018-03-20T11:31:35.788Z,3180.00
2018-03-20T11:32:36.205Z,3108.00
2018-03-20T11:33:36.623Z,3032.00
2018-03-20T11:34:37.032Z,3092.00
2018-03-20T11:35:37.463Z,3096.00
2018-03-20T11:36:37.884Z,2928.00
2018-03-20T11:37:38.300Z,2980.00
2018-03-20T11:38:38.725Z,3440.00
2018-03-20T11:39:39.164Z,4040.00
2018-03-20T11:40:39.570Z,4204.00
2018-03-20T11:41:39.983Z,4132.00
2018-03-20T11:42:40.412Z,3580.00
2018-03-20T11:43:40.831Z,3076.00
2018-03-20T11:44:41.255Z,3172.00
2018-03-20T11:45:41.671Z,3804.00
2018-03-20T11:46:42.087Z,4124.00
2018-03-20T11:47:42.514Z,4584.00
2018-03-20T11:48:42.921Z,5320.00
2018-03-20T11:49:43.350Z,5888.00
2018-03-20T11:50:43.770Z,5860.00
2018-03-20T11:51:44.181Z,5644.00
2018-03-20T11:52:44.614Z,5328.00
2018-03-20T11:53:45.032Z,4780.00
2018-03-20T11:54:45.502Z,4792.00
2018-03-20T11:55:45.871Z,4992.00
2018-03-20T11:56:46.288Z,4908.00
2018-03-20T11:57:46.708Z,4816.00
2018-03-20T11:58:47.129Z,4800.00
2018-03-20T11:59:47.558Z,4272.00
2018-03-20T12:00:47.977Z,3968.00
2018-03-20T12:01:48.386Z,4380.00
2018-03-20T12:02:48.815Z,5724.00
2018-03-20T12:03:49.238Z,5984.00
2018-03-20T12:04:49.710Z,6456.00
2018-03-20T12:05:50.078Z,5536.00
2018-03-20T12:06:50.494Z,5076.00
2018-03-20T12:07:50.910Z,4280.00
2018-03-20T12:08:51.349Z,4396.00
2018-03-20T12:09:51.768Z,4012.00
2018-03-20T12:10:52.182Z,4100.00
2018-03-20T12:11:52.599Z,3484.00
2018-03-20T12:12:53.026Z,3108.00
2018-03-20T12:13:53.444Z,2944.00
2018-03-20T12:14:53.862Z,2928.00
2018-03-20T12:15:54.284Z,3452.00
2018-03-20T12:16:54.707Z,4848.00
2018-03-20T12:17:55.134Z,5188.00
2018-03-20T12:18:55.764Z,4580.00
2018-03-20T12:19:55.963Z,4540.00
2018-03-20T12:20:56.384Z,4904.00
2018-03-20T12:21:56.824Z,7120.00
2018-03-20T12:22:57.234Z,6732.00
2018-03-20T12:23:57.655Z,6800.00
2018-03-20T12:24:58.066Z,7552.00
2018-03-20T12:25:58.496Z,7160.00
2018-03-20T12:26:58.907Z,5804.00
2018-03-20T12:27:59.337Z,5628.00
2018-03-20T12:28:59.751Z,5804.00
2018-03-20T12:30:00.176Z,5500.00
2018-03-20T12:31:00.602Z,5132.00
2018-03-20T12:32:01.031Z,5448.00
2018-03-20T12:33:01.445Z,5520.00
2018-03-20T12:34:01.861Z,5544.00
2018-03-20T12:35:02.281Z,4736.00
2018-03-20T12:36:02.706Z,5764.00
2018-03-20T12:37:03.120Z,7384.00
2018-03-20T12:38:03.627Z,7900.00
2018-03-20T12:39:03.966Z,7180.00
2018-03-20T12:40:04.388Z,7512.00
2018-03-20T12:41:04.807Z,10124.00
2018-03-20T12:42:05.233Z,9972.00
2018-03-20T12:43:05.670Z,7916.00
2018-03-20T12:44:06.077Z,9520.00
2018-03-20T12:45:06.493Z,9208.00
2018-03-20T12:46:06.910Z,8428.00
2018-03-20T12:47:07.340Z,8164.00
2018-03-20T12:48:07.753Z,7164.00
2018-03-20T12:49:08.182Z,6208.00
2018-03-20T12:50:08.598Z,6948.00
2018-03-20T12:51:09.018Z,8540.00
2018-03-20T12:52:09.435Z,10924.00
2018-03-20T12:53:09.867Z,8852.00
2018-03-20T12:54:10.301Z,8332.00
2018-03-20T12:55:10.705Z,7844.00
2018-03-20T12:56:11.129Z,6464.00
2018-03-20T12:57:11.547Z,6240.00
2018-03-20T12:58:11.969Z,7112.00
2018-03-20T12:59:12.397Z,6776.00
2018-03-20T13:00:12.820Z,4892.00
2018-03-20T13:01:13.235Z,4480.00
2018-03-20T13:02:13.657Z,4704.00
2018-03-20T13:03:14.076Z,5220.00
2018-03-20T13:04:14.506Z,5428.00
2018-03-20T13:05:14.922Z,4948.00
2018-03-20T13:06:15.348Z,4812.00
2018-03-20T13:07:15.771Z,4812.00
2018-03-20T13:08:16.187Z,5492.00
2018-03-20T13:09:16.608Z,4628.00
2018-03-20T13:10:17.036Z,5104.00
2018-03-20T13:11:17.463Z,6292.00
2018-03-20T13:12:17.883Z,6412.00
2018-03-20T13:13:18.301Z,4884.00
2018-03-20T13:14:18.721Z,4368.00
2018-03-20T13:15:19.142Z,5528.00
2018-03-20T13:16:19.558Z,6400.00
2018-03-20T13:17:19.987Z,6376.00
2018-03-20T13:18:20.413Z,6060.00
2018-03-20T13:19:20.858Z,7428.00
2018-03-20T13:20:21.254Z,6980.00
2018-03-20T13:21:21.663Z,6160.00
2018-03-20T13:22:22.097Z,6944.00
2018-03-20T13:23:22.536Z,7768.00
2018-03-20T13:24:22.938Z,8532.00
2018-03-20T13:25:23.355Z,8464.00
2018-03-20T13:26:23.815Z,7568.00
2018-03-20T13:27:24.203Z,6764.00
2018-03-20T13:28:24.615Z,6624.00
2018-03-20T13:29:25.059Z,7180.00
2018-03-20T13:30:25.471Z,7784.00
2018-03-20T13:31:25.894Z,7384.00
2018-03-20T13:32:26.305Z,6308.00
2018-03-20T13:33:26.732Z,6228.00
2018-03-20T13:34:27.161Z,6508.00
2018-03-20T13:35:27.574Z,6276.00
2018-03-20T13:36:28.003Z,5912.00
2018-03-20T13:37:28.414Z,5444.00
2018-03-20T13:38:28.838Z,4784.00
2018-03-20T13:39:29.263Z,4208.00
2018-03-20T13:40:29.682Z,4416.00
2018-03-20T13:41:30.105Z,3724.00
2018-03-20T13:42:30.526Z,3420.00
2018-03-20T13:43:30.957Z,3708.00
2018-03-20T13:44:31.366Z,3684.00
2018-03-20T13:45:31.796Z,3492.00
2018-03-20T13:46:32.212Z,3092.00
2018-03-20T13:47:32.635Z,2672.00
2018-03-20T13:48:33.057Z,2768.00
2018-03-20T13:49:33.497Z,3460.00
2018-03-20T13:50:33.906Z,3668.00
2018-03-20T13:51:34.322Z,3524.00
2018-03-20T13:52:34.759Z,3316.00
2018-03-20T13:53:35.159Z,3036.00
2018-03-20T13:54:35.582Z,2940.00
2018-03-20T13:55:36.001Z,2612.00
2018-03-20T13:56:36.434Z,2364.00
2018-03-20T13:57:36.862Z,2348.00
2018-03-20T13:58:37.293Z,2312.00
2018-03-20T13:59:37.697Z,2552.00
2018-03-20T14:00:38.113Z,2784.00
2018-03-20T14:01:38.526Z,2300.00
2018-03-20T14:02:38.960Z,2196.00
2018-03-20T14:03:39.374Z,2384.00